createdAt,value
2022-10-15T00:02:11.322Z,78.00
2022-10-15T00:04:39.250Z,83.25
2022-10-15T00:07:07.481Z,81.50
2022-10-15T00:09:35.383Z,80.00
2022-10-15T00:12:03.246Z,78.50
2022-10-15T00:14:32.534Z,75.75
2022-10-15T00:17:00.720Z,77.25
2022-10-15T00:19:28.601Z,77.25
2022-10-15T00:21:56.477Z,78.75
2022-10-15T00:24:24.354Z,81.25
2022-10-15T00:26:52.531Z,76.50
2022-10-15T00:29:20.419Z,78.50
2022-10-15T00:31:49.653Z,76.50
2022-10-15T00:34:17.549Z,75.00
2022-10-15T00:36:45.971Z,73.75
2022-10-15T00:39:13.850Z,75.50
2022-10-15T00:41:43.092Z,73.50
2022-10-15T00:44:49.252Z,73.25
2022-10-15T00:47:20.394Z,67.00
2022-10-15T00:49:50.214Z,72.25
2022-10-15T00:52:20.223Z,69.50
2022-10-15T00:54:51.093Z,66.50
2022-10-15T00:57:19.242Z,66.50
2022-10-15T00:59:50.299Z,67.00
2022-10-15T01:02:19.894Z,68.75
2022-10-15T01:04:47.924Z,66.75
2022-10-15T01:09:44.925Z,62.50
2022-10-15T01:12:13.579Z,60.50
2022-10-15T01:14:45.390Z,63.25
2022-10-15T01:17:16.946Z,61.50
2022-10-15T01:20:21.955Z,62.50
2022-10-15T01:22:58.571Z,57.25
2022-10-15T01:25:31.047Z,56.25
2022-10-15T01:27:59.590Z,56.25
2022-10-15T01:30:31.742Z,57.50
2022-10-15T01:33:05.387Z,57.50
2022-10-15T01:35:37.330Z,55.25
2022-10-15T01:38:09.544Z,52.75
2022-10-15T01:40:39.839Z,55.25
2022-10-15T01:43:09.883Z,52.50
2022-10-15T01:45:42.433Z,53.25
2022-10-15T01:48:11.495Z,52.25
2022-10-15T01:50:41.288Z,54.75
2022-10-15T01:53:09.296Z,51.50
2022-10-15T01:55:37.598Z,52.50
2022-10-15T01:58:05.453Z,52.00
2022-10-15T02:00:33.433Z,50.50
2022-10-15T02:03:02.898Z,52.00
2022-10-15T02:05:31.723Z,50.50
2022-10-15T02:08:01.699Z,49.75
2022-10-15T02:10:31.419Z,50.25
2022-10-15T02:13:04.999Z,49.25
2022-10-15T02:15:35.994Z,48.00
2022-10-15T02:18:06.905Z,49.50
2022-10-15T02:20:37.233Z,47.75
2022-10-15T02:23:06.298Z,49.50
2022-10-15T02:25:35.380Z,49.00
2022-10-15T02:28:03.288Z,48.50
2022-10-15T02:30:31.141Z,47.75
2022-10-15T02:32:59.893Z,45.75
2022-10-15T02:35:29.416Z,46.25
2022-10-15T02:37:57.524Z,45.50
2022-10-15T02:40:27.839Z,45.75
2022-10-15T02:42:56.248Z,45.50
2022-10-15T02:45:24.542Z,45.25
2022-10-15T02:47:52.461Z,44.00
2022-10-15T02:50:20.350Z,44.00
2022-10-15T02:52:49.563Z,44.00
2022-10-15T02:55:17.854Z,43.50
2022-10-15T02:57:45.727Z,44.00
2022-10-15T03:00:14.534Z,43.50
2022-10-15T03:02:42.479Z,43.50
2022-10-15T03:05:10.848Z,42.75
2022-10-15T03:07:38.713Z,42.00
2022-10-15T03:10:08.939Z,41.25
2022-10-15T03:12:36.768Z,41.50
2022-10-15T03:15:05.042Z,41.50
2022-10-15T03:17:32.906Z,42.00
2022-10-15T03:20:00.778Z,42.50
2022-10-15T03:22:28.691Z,39.75
2022-10-15T03:24:56.600Z,39.00
2022-10-15T03:27:26.554Z,38.75
2022-10-15T03:29:54.485Z,40.00
2022-10-15T03:32:22.378Z,38.50
2022-10-15T03:34:50.317Z,39.75
2022-10-15T03:37:18.470Z,37.50
2022-10-15T03:39:46.359Z,39.50
2022-10-15T03:42:14.234Z,38.50
2022-10-15T03:44:43.488Z,36.50
2022-10-15T03:47:11.692Z,38.25
2022-10-15T03:49:39.564Z,36.50
2022-10-15T03:52:07.552Z,37.00
2022-10-15T03:54:36.316Z,38.25
2022-10-15T03:57:04.468Z,36.50
2022-10-15T03:59:32.382Z,36.25
2022-10-15T04:02:01.779Z,35.00
2022-10-15T04:04:29.645Z,34.00
2022-10-15T04:06:57.763Z,36.00
2022-10-15T04:09:25.905Z,33.75
2022-10-15T04:11:53.765Z,32.75
2022-10-15T04:14:21.651Z,35.25
2022-10-15T04:16:49.802Z,33.00
2022-10-15T04:19:19.060Z,31.50
2022-10-15T04:21:46.973Z,33.25
2022-10-15T04:24:14.887Z,33.25
2022-10-15T04:26:43.205Z,32.75
2022-10-15T04:29:11.082Z,32.00
2022-10-15T04:31:38.965Z,32.50
2022-10-15T04:34:06.860Z,31.25
2022-10-15T04:36:36.885Z,30.00
2022-10-15T04:39:05.061Z,33.50
2022-10-15T04:41:32.938Z,32.00
2022-10-15T04:44:00.768Z,31.50
2022-10-15T04:46:28.672Z,29.75
2022-10-15T04:48:57.841Z,29.00
2022-10-15T04:51:26.776Z,29.50
2022-10-15T04:53:56.104Z,30.50
2022-10-15T04:56:25.310Z,29.75
2022-10-15T04:58:53.189Z,29.25
2022-10-15T05:01:21.633Z,31.50
2022-10-15T05:03:49.701Z,29.25
2022-10-15T05:06:18.315Z,26.50
2022-10-15T05:08:46.615Z,28.25
2022-10-15T05:11:16.898Z,26.25
2022-10-15T05:13:44.798Z,27.75
2022-10-15T05:16:13.985Z,27.00
2022-10-15T05:18:41.995Z,26.00
2022-10-15T05:21:09.946Z,26.50
2022-10-15T05:23:37.932Z,29.75
2022-10-15T05:26:07.279Z,29.50
2022-10-15T05:28:36.560Z,29.00
2022-10-15T05:31:05.838Z,31.00
2022-10-15T05:33:33.707Z,30.50
2022-10-15T05:36:10.844Z,31.00
2022-10-15T05:38:38.787Z,29.75
2022-10-15T05:41:06.804Z,29.75
2022-10-15T05:43:38.916Z,31.25
2022-10-15T05:46:09.520Z,30.75
2022-10-15T05:48:37.445Z,32.50
2022-10-15T05:51:06.036Z,32.00
2022-10-15T05:53:33.947Z,29.25
2022-10-15T05:56:02.123Z,31.50
2022-10-15T05:58:33.370Z,32.25
2022-10-15T06:01:06.762Z,31.50
2022-10-15T06:03:34.662Z,32.00
2022-10-15T06:06:02.854Z,32.50
2022-10-15T06:08:31.058Z,31.50
2022-10-15T06:11:06.711Z,31.50
2022-10-15T06:13:38.479Z,31.75
2022-10-15T06:16:08.286Z,32.75
2022-10-15T06:18:36.445Z,31.50
2022-10-15T06:21:04.345Z,33.75
2022-10-15T06:23:32.205Z,33.25
2022-10-15T06:26:03.498Z,31.50
2022-10-15T06:28:31.466Z,29.25
2022-10-15T06:30:59.825Z,31.50
2022-10-15T06:33:29.309Z,29.75
2022-10-15T06:36:01.197Z,29.75
2022-10-15T06:38:29.098Z,31.50
2022-10-15T06:40:57.255Z,31.25
2022-10-15T06:43:25.360Z,29.50
2022-10-15T06:45:54.067Z,31.50
2022-10-15T06:48:22.165Z,30.50
2022-10-15T06:50:51.552Z,29.25
2022-10-15T06:53:19.645Z,31.00
2022-10-15T06:55:48.036Z,32.50
2022-10-15T06:58:16.204Z,29.50
2022-10-15T07:00:44.306Z,28.50
2022-10-15T07:03:12.326Z,27.50
2022-10-15T07:05:40.616Z,29.25
2022-10-15T07:08:09.874Z,28.25
2022-10-15T07:10:37.777Z,28.50
2022-10-15T07:13:05.648Z,27.75
2022-10-15T07:15:33.990Z,27.00
2022-10-15T07:18:02.301Z,25.25
2022-10-15T07:20:30.669Z,27.00
2022-10-15T07:22:59.384Z,25.50
2022-10-15T07:25:28.990Z,26.75
2022-10-15T07:27:57.196Z,27.50
2022-10-15T07:30:27.337Z,24.25
2022-10-15T07:32:56.516Z,25.75
2022-10-15T07:35:25.953Z,26.75
2022-10-15T07:37:53.803Z,23.50
2022-10-15T07:40:21.746Z,25.50
2022-10-15T07:42:55.739Z,24.50
2022-10-15T07:45:23.728Z,25.50
2022-10-15T07:47:51.724Z,20.75
2022-10-15T07:50:19.724Z,24.00
2022-10-15T07:52:47.630Z,23.25
2022-10-15T07:55:15.907Z,22.50
2022-10-15T07:57:43.805Z,21.75
2022-10-15T08:00:13.870Z,24.75
2022-10-15T08:02:41.792Z,23.50
2022-10-15T08:05:10.298Z,21.25
2022-10-15T08:07:38.134Z,22.25
2022-10-15T08:10:06.890Z,21.50
2022-10-15T08:12:34.834Z,21.00
2022-10-15T08:15:02.705Z,23.50
2022-10-15T08:17:32.312Z,21.50
2022-10-15T08:20:00.239Z,21.50
2022-10-15T08:22:28.111Z,20.00
2022-10-15T08:24:55.987Z,21.50
2022-10-15T08:27:23.938Z,19.00
2022-10-15T08:29:51.812Z,18.50
2022-10-15T08:32:19.667Z,18.25
2022-10-15T08:34:48.943Z,18.00
2022-10-15T08:37:17.054Z,20.75
2022-10-15T08:39:44.992Z,18.25
2022-10-15T08:42:16.433Z,18.75
2022-10-15T08:44:47.090Z,18.75
2022-10-15T08:47:19.161Z,18.00
2022-10-15T08:49:50.076Z,17.75
2022-10-15T08:52:21.194Z,20.75
2022-10-15T08:54:49.059Z,19.25
2022-10-15T08:57:24.425Z,18.75
2022-10-15T08:59:55.914Z,17.75
2022-10-15T09:02:25.195Z,19.00
2022-10-15T09:04:57.185Z,17.50
2022-10-15T09:07:27.499Z,17.25
2022-10-15T09:09:58.329Z,17.75
2022-10-15T09:12:36.445Z,19.50
2022-10-15T09:15:04.499Z,16.75
2022-10-15T09:17:33.339Z,19.25
2022-10-15T09:20:06.246Z,17.50
2022-10-15T09:22:34.488Z,18.50
2022-10-15T09:25:04.197Z,17.50
2022-10-15T09:27:33.679Z,15.50
2022-10-15T09:30:05.841Z,17.25
2022-10-15T09:32:36.735Z,17.50
2022-10-15T09:35:12.310Z,16.00
2022-10-15T09:37:44.291Z,16.75
2022-10-15T09:40:33.429Z,15.75
2022-10-15T09:43:01.540Z,19.00
2022-10-15T09:45:29.979Z,18.00
2022-10-15T09:48:00.161Z,19.00
2022-10-15T09:50:30.314Z,15.25
2022-10-15T09:53:04.569Z,16.75
2022-10-15T09:55:36.630Z,17.00
2022-10-15T09:58:05.990Z,17.00
2022-10-15T10:01:01.514Z,16.50
2022-10-15T10:03:30.250Z,17.50
2022-10-15T10:06:03.791Z,18.00
2022-10-15T10:08:35.332Z,16.75
2022-10-15T10:11:04.196Z,16.50
2022-10-15T10:13:33.681Z,16.00
2022-10-15T10:16:04.431Z,17.25
2022-10-15T10:18:32.538Z,18.00
2022-10-15T10:21:02.733Z,15.00
2022-10-15T10:23:35.772Z,19.00
2022-10-15T10:26:04.015Z,18.00
2022-10-15T10:28:34.377Z,16.25
2022-10-15T10:31:05.057Z,15.50
2022-10-15T10:33:35.516Z,17.50
2022-10-15T10:36:06.231Z,17.50
2022-10-15T10:38:34.668Z,16.25
2022-10-15T10:41:07.441Z,15.75
2022-10-15T10:43:39.112Z,16.50
2022-10-15T10:46:08.127Z,15.75
2022-10-15T10:48:40.201Z,14.50
2022-10-15T10:51:16.732Z,17.00
2022-10-15T10:53:52.320Z,16.75
2022-10-15T10:56:23.246Z,15.00
2022-10-15T10:58:54.315Z,14.50
2022-10-15T11:01:22.198Z,14.75
2022-10-15T11:03:50.500Z,14.50
2022-10-15T11:06:42.289Z,18.25
2022-10-15T11:09:35.613Z,14.50
2022-10-15T11:12:09.198Z,16.00
2022-10-15T11:14:43.568Z,15.00
2022-10-15T11:17:15.691Z,17.00
2022-10-15T11:22:46.215Z,15.00
2022-10-15T11:25:21.127Z,13.75
2022-10-15T11:27:57.516Z,13.50
2022-10-15T11:30:33.280Z,16.75
2022-10-15T11:33:08.476Z,15.00
2022-10-15T11:35:52.879Z,14.50
2022-10-15T11:38:26.640Z,17.50
2022-10-15T11:41:03.663Z,15.25
2022-10-15T11:43:42.061Z,17.75
2022-10-15T11:46:11.293Z,15.50
2022-10-15T11:48:45.648Z,14.75
2022-10-15T11:51:18.235Z,15.50
2022-10-15T11:53:58.778Z,15.25
2022-10-15T11:56:27.829Z,16.25
2022-10-15T12:01:31.962Z,16.50
2022-10-15T12:04:00.715Z,17.50
2022-10-15T12:06:29.642Z,16.00
2022-10-15T12:08:58.944Z,16.00
2022-10-15T12:11:31.932Z,18.00
2022-10-15T12:14:01.861Z,17.50
2022-10-15T12:16:34.943Z,17.50
2022-10-15T12:19:08.871Z,16.75
2022-10-15T12:21:41.332Z,19.00
2022-10-15T12:24:55.386Z,18.50
2022-10-15T12:27:25.017Z,16.25
2022-10-15T12:29:53.802Z,19.75
2022-10-15T12:32:25.274Z,19.75
2022-10-15T12:34:56.617Z,19.50
2022-10-15T12:37:25.974Z,18.50
2022-10-15T12:39:59.473Z,18.50
2022-10-15T12:42:28.283Z,18.25
2022-10-15T12:44:56.167Z,20.50
2022-10-15T12:47:49.279Z,19.25
2022-10-15T12:50:20.961Z,20.25
2022-10-15T12:52:56.370Z,20.50
2022-10-15T12:55:30.405Z,20.00
2022-10-15T12:58:00.506Z,19.50
2022-10-15T13:00:35.939Z,18.50
2022-10-15T13:03:33.750Z,19.25
2022-10-15T13:06:34.972Z,17.75
2022-10-15T13:09:14.095Z,18.25
2022-10-15T13:11:45.489Z,17.50
2022-10-15T13:14:19.560Z,16.50
2022-10-15T13:16:48.061Z,19.00
2022-10-15T13:19:19.068Z,18.25
2022-10-15T13:21:51.574Z,18.75
2022-10-15T13:24:20.153Z,17.75
2022-10-15T13:26:49.615Z,17.75
2022-10-15T13:29:17.919Z,16.75
2022-10-15T13:31:46.059Z,17.00
2022-10-15T13:34:21.032Z,18.25
2022-10-15T13:36:48.888Z,18.00
2022-10-15T13:39:25.982Z,15.75
2022-10-15T13:41:56.152Z,16.50
2022-10-15T13:44:24.767Z,18.50
2022-10-15T13:46:52.957Z,18.50
2022-10-15T13:49:22.246Z,16.75
2022-10-15T13:51:51.952Z,16.00
2022-10-15T13:54:21.517Z,17.25
2022-10-15T13:56:53.141Z,15.50
2022-10-15T13:59:22.596Z,16.50
2022-10-15T14:01:52.684Z,16.50
2022-10-15T14:04:21.258Z,16.50
2022-10-15T14:09:33.034Z,14.75
2022-10-15T14:12:03.373Z,16.00
2022-10-15T14:14:35.039Z,17.50
2022-10-15T14:17:04.113Z,15.75
2022-10-15T14:19:31.962Z,15.75
2022-10-15T14:22:00.059Z,15.00
2022-10-15T14:24:32.991Z,16.75
2022-10-15T14:27:05.907Z,15.50
2022-10-15T14:29:39.913Z,14.50
2022-10-15T14:32:25.465Z,15.75
2022-10-15T14:34:53.824Z,13.50
2022-10-15T14:37:45.831Z,15.50
2022-10-15T14:40:16.524Z,16.25
2022-10-15T14:42:45.521Z,16.50
2022-10-15T14:45:19.600Z,15.50
2022-10-15T14:47:47.622Z,16.00
2022-10-15T14:50:15.484Z,18.00
2022-10-15T14:52:45.214Z,17.00
2022-10-15T14:55:16.703Z,17.25
2022-10-15T14:57:45.154Z,17.75
2022-10-15T15:00:16.778Z,20.00
2022-10-15T15:02:44.729Z,17.00
2022-10-15T15:05:20.627Z,20.25
2022-10-15T15:07:49.100Z,19.25
2022-10-15T15:10:17.068Z,20.00
2022-10-15T15:12:47.839Z,18.00
2022-10-15T15:15:17.763Z,22.00
2022-10-15T15:17:46.096Z,20.25
2022-10-15T15:20:13.947Z,21.50
2022-10-15T15:22:41.907Z,20.00
2022-10-15T15:25:15.388Z,26.25
2022-10-15T15:27:43.322Z,26.50
2022-10-15T15:30:17.630Z,26.75
2022-10-15T15:32:45.529Z,29.00
2022-10-15T15:35:21.162Z,29.25
2022-10-15T15:37:49.062Z,31.50
2022-10-15T15:40:17.085Z,29.50
2022-10-15T15:42:45.267Z,29.75
2022-10-15T15:45:20.781Z,27.50
2022-10-15T15:47:48.656Z,28.00
2022-10-15T15:50:16.798Z,29.75
2022-10-15T15:52:44.733Z,28.75
2022-10-15T15:55:13.284Z,28.00
2022-10-15T15:57:41.152Z,28.00
2022-10-15T16:00:12.978Z,27.25
2022-10-15T16:02:42.242Z,28.25
2022-10-15T16:05:12.135Z,30.25
2022-10-15T16:07:40.073Z,25.75
2022-10-15T16:10:11.746Z,28.50
2022-10-15T16:12:39.694Z,30.75
2022-10-15T16:15:15.072Z,31.00
2022-10-15T16:17:44.816Z,29.50
2022-10-15T16:20:13.085Z,30.75
2022-10-15T16:22:40.941Z,34.00
2022-10-15T16:25:10.005Z,31.75
2022-10-15T16:27:37.885Z,34.50
2022-10-15T16:30:08.964Z,33.75
2022-10-15T16:32:37.163Z,33.50
2022-10-15T16:35:07.594Z,33.50
2022-10-15T16:37:35.499Z,31.50
2022-10-15T16:40:03.455Z,32.25
2022-10-15T16:42:31.315Z,33.50
2022-10-15T16:44:59.167Z,34.25
2022-10-15T16:47:27.673Z,31.75
2022-10-15T16:49:56.271Z,31.75
2022-10-15T16:52:25.768Z,32.50
2022-10-15T16:54:53.908Z,33.25
2022-10-15T16:57:22.037Z,31.50
2022-10-15T16:59:49.898Z,35.00
2022-10-15T17:02:17.766Z,33.50
2022-10-15T17:04:46.797Z,35.00
2022-10-15T17:07:14.989Z,37.00
2022-10-15T17:09:45.277Z,38.00
2022-10-15T17:12:13.243Z,37.00
2022-10-15T17:14:41.108Z,37.25
2022-10-15T17:17:09.271Z,37.25
2022-10-15T17:19:37.125Z,35.75
2022-10-15T17:22:04.991Z,35.75
2022-10-15T17:24:32.838Z,35.50
2022-10-15T17:27:02.304Z,37.50
2022-10-15T17:29:33.503Z,36.75
2022-10-15T17:32:01.766Z,37.50
2022-10-15T17:34:29.616Z,36.75
2022-10-15T17:36:57.584Z,36.75
2022-10-15T17:39:25.616Z,36.75
2022-10-15T17:41:53.499Z,36.50
2022-10-15T17:44:22.738Z,36.25
2022-10-15T17:46:52.656Z,35.50
2022-10-15T17:49:21.013Z,35.00
2022-10-15T17:51:48.941Z,35.25
2022-10-15T17:54:16.841Z,34.50
2022-10-15T17:56:45.003Z,37.25
2022-10-15T17:59:12.994Z,34.50
2022-10-15T18:01:59.879Z,36.50
2022-10-15T18:04:28.896Z,37.50
2022-10-15T18:06:57.078Z,37.50
2022-10-15T18:09:25.068Z,35.75
2022-10-15T18:11:52.901Z,35.75
2022-10-15T18:16:55.548Z,40.00
2022-10-15T18:19:25.605Z,38.50
2022-10-15T18:21:53.508Z,35.50
2022-10-15T18:24:22.216Z,37.25
2022-10-15T18:26:50.497Z,39.75
2022-10-15T18:29:18.590Z,38.50
2022-10-15T18:31:46.759Z,38.75
2022-10-15T18:34:16.123Z,36.75
2022-10-15T18:36:44.954Z,36.25
2022-10-15T18:39:12.902Z,39.50
2022-10-15T18:41:41.101Z,37.25
2022-10-15T18:44:12.219Z,37.50
2022-10-15T18:46:42.233Z,36.25
2022-10-15T18:49:10.171Z,38.50
2022-10-15T18:51:39.400Z,39.00
2022-10-15T18:54:08.695Z,39.00
2022-10-15T18:56:36.820Z,38.75
2022-10-15T18:59:04.665Z,37.00
2022-10-15T19:01:33.915Z,37.75
2022-10-15T19:04:02.744Z,39.25
2022-10-15T19:06:31.623Z,37.00
2022-10-15T19:09:01.016Z,38.25
2022-10-15T19:11:29.116Z,41.75
2022-10-15T19:13:57.631Z,41.75
2022-10-15T19:16:25.836Z,42.00
2022-10-15T19:18:53.709Z,41.50
2022-10-15T19:21:21.590Z,40.25
2022-10-15T19:23:49.542Z,40.25
2022-10-15T19:26:19.142Z,41.00
2022-10-15T19:28:47.163Z,38.25
2022-10-15T19:31:19.927Z,41.50
2022-10-15T19:33:47.776Z,42.00
2022-10-15T19:36:20.650Z,43.00
2022-10-15T19:38:48.489Z,40.75
2022-10-15T19:41:16.500Z,41.50
2022-10-15T19:43:45.773Z,40.75
2022-10-15T19:46:13.933Z,42.25
2022-10-15T19:48:41.809Z,43.50
2022-10-15T19:51:09.695Z,38.50
2022-10-15T19:53:37.620Z,40.25
2022-10-15T19:56:07.075Z,43.50
2022-10-15T19:58:35.059Z,45.50
2022-10-15T20:01:05.479Z,44.50
2022-10-15T20:06:02.814Z,45.50
2022-10-15T20:08:31.625Z,48.75
2022-10-15T20:10:59.514Z,51.00
2022-10-15T20:13:27.466Z,47.25
2022-10-15T20:15:55.628Z,46.00
2022-10-15T20:18:24.834Z,46.00
2022-10-15T20:20:52.807Z,50.50
2022-10-15T20:23:20.663Z,48.75
2022-10-15T20:25:48.847Z,50.50
2022-10-15T20:28:18.285Z,50.25
2022-10-15T20:30:47.210Z,47.75
2022-10-15T20:33:15.464Z,50.25
2022-10-15T20:35:45.092Z,49.25
2022-10-15T20:38:12.963Z,50.50
2022-10-15T20:40:41.235Z,51.25
2022-10-15T20:43:09.276Z,51.25
2022-10-15T20:45:42.080Z,50.75
2022-10-15T20:48:10.479Z,50.75
2022-10-15T20:50:38.329Z,49.75
2022-10-15T20:53:07.618Z,50.50
2022-10-15T20:55:35.938Z,51.50
2022-10-15T20:58:03.874Z,52.25
2022-10-15T21:00:31.773Z,50.75
2022-10-15T21:02:59.670Z,50.50
2022-10-15T21:05:27.790Z,51.50
2022-10-15T21:07:58.322Z,51.75
2022-10-15T21:10:27.602Z,52.25
2022-10-15T21:12:55.473Z,56.75
2022-10-15T21:15:23.621Z,56.25
2022-10-15T21:17:51.546Z,53.00
2022-10-15T21:20:19.393Z,52.25
2022-10-15T21:22:47.337Z,54.25
2022-10-15T21:25:15.702Z,54.50
2022-10-15T21:27:44.971Z,56.25
2022-10-15T21:30:13.092Z,53.50
2022-10-15T21:32:41.069Z,52.50
2022-10-15T21:35:09.598Z,54.75
2022-10-15T21:37:37.566Z,54.75
2022-10-15T21:40:06.355Z,53.75
2022-10-15T21:42:34.276Z,50.50
2022-10-15T21:45:03.534Z,51.00
2022-10-15T21:47:32.650Z,52.25
2022-10-15T21:50:00.537Z,52.75
2022-10-15T21:52:28.486Z,54.25
2022-10-15T21:54:56.396Z,54.50
2022-10-15T21:57:26.894Z,61.00
2022-10-15T21:59:55.050Z,58.25
2022-10-15T22:02:24.351Z,58.75
2022-10-15T22:04:52.206Z,60.50
2022-10-15T22:07:20.351Z,61.25
2022-10-15T22:09:48.865Z,61.50
2022-10-15T22:12:19.017Z,60.00
2022-10-15T22:14:49.108Z,59.50
2022-10-15T22:17:17.251Z,63.75
2022-10-15T22:19:46.471Z,59.50
2022-10-15T22:22:14.372Z,57.75
2022-10-15T22:24:42.460Z,54.25
2022-10-15T22:27:10.625Z,54.25
2022-10-15T22:29:38.538Z,58.75
2022-10-15T22:32:06.672Z,54.00
2022-10-15T22:34:34.579Z,53.00
2022-10-15T22:37:04.138Z,54.25
2022-10-15T22:39:32.040Z,53.25
2022-10-15T22:41:59.892Z,52.50
2022-10-15T22:44:27.788Z,51.50
2022-10-15T22:46:55.966Z,54.25
2022-10-15T22:49:25.450Z,51.75
2022-10-15T22:51:53.355Z,52.25
2022-10-15T22:54:22.963Z,50.75
2022-10-15T22:56:51.143Z,51.25
2022-10-15T22:59:19.072Z,50.25
2022-10-15T23:01:46.928Z,50.50
2022-10-15T23:04:15.497Z,50.50
2022-10-15T23:06:43.719Z,50.50
2022-10-15T23:09:11.822Z,50.00
2022-10-15T23:11:41.326Z,48.25
2022-10-15T23:14:11.952Z,49.75
2022-10-15T23:16:41.101Z,47.50
2022-10-15T23:19:17.352Z,47.50
2022-10-15T23:21:45.809Z,47.25
2022-10-15T23:24:13.927Z,49.25
2022-10-15T23:26:43.562Z,46.00
2022-10-15T23:29:14.606Z,45.50
2022-10-15T23:31:42.422Z,47.50
2022-10-15T23:34:12.138Z,45.50
2022-10-15T23:36:40.258Z,45.50
2022-10-15T23:39:08.487Z,44.50
2022-10-15T23:41:36.408Z,47.00
2022-10-15T23:44:05.688Z,43.50
2022-10-15T23:46:33.799Z,44.50
2022-10-15T23:49:01.685Z,43.75
2022-10-15T23:51:30.333Z,43.00
2022-10-15T23:53:58.886Z,42.50
2022-10-15T23:56:27.251Z,44.00
2022-10-15T23:58:56.744Z,42.00
